sensor_id;sensor_type;location;lat;lon;timestamp;P1;durP1;ratioP1;P2;durP2;ratioP2
80870;SDS011;70296;49.226;-122.884;2023-11-22T00:01:07;6.35;;;3.10;;
80870;SDS011;70296;49.226;-122.884;2023-11-22T00:03:36;8.60;;;2.83;;
80870;SDS011;70296;49.226;-122.884;2023-11-22T00:06:02;6.25;;;2.33;;
80870;SDS011;70296;49.226;-122.884;2023-11-22T00:08:29;6.38;;;2.58;;
80870;SDS011;70296;49.226;-122.884;2023-11-22T00:10:55;5.38;;;2.33;;
80870;SDS011;70296;49.226;-122.884;2023-11-22T00:13:23;6.55;;;2.45;;
80870;SDS011;70296;49.226;-122.884;2023-11-22T00:15:49;6.80;;;2.38;;
80870;SDS011;70296;49.226;-122.884;2023-11-22T00:18:18;4.28;;;2.22;;
80870;SDS011;70296;49.226;-122.884;2023-11-22T00:20:46;7.35;;;2.80;;
80870;SDS011;70296;49.226;-122.884;2023-11-22T00:23:14;7.72;;;2.08;;
80870;SDS011;70296;49.226;-122.884;2023-11-22T00:25:40;12.77;;;2.53;;
80870;SDS011;70296;49.226;-122.884;2023-11-22T00:28:06;6.78;;;2.58;;
80870;SDS011;70296;49.226;-122.884;2023-11-22T00:30:32;7.78;;;2.45;;
80870;SDS011;70296;49.226;-122.884;2023-11-22T00:32:58;8.95;;;2.75;;
80870;SDS011;70296;49.226;-122.884;2023-11-22T00:35:25;11.00;;;2.85;;
80870;SDS011;70296;49.226;-122.884;2023-11-22T00:37:51;8.07;;;3.60;;
80870;SDS011;70296;49.226;-122.884;2023-11-22T00:40:17;12.55;;;3.25;;
80870;SDS011;70296;49.226;-122.884;2023-11-22T00:42:49;8.80;;;3.25;;
80870;SDS011;70296;49.226;-122.884;2023-11-22T00:45:15;5.13;;;2.70;;
80870;SDS011;70296;49.226;-122.884;2023-11-22T00:47:43;6.53;;;3.03;;
80870;SDS011;70296;49.226;-122.884;2023-11-22T00:50:10;6.55;;;2.72;;
80870;SDS011;70296;49.226;-122.884;2023-11-22T00:52:36;4.65;;;2.60;;
80870;SDS011;70296;49.226;-122.884;2023-11-22T00:55:02;7.68;;;2.30;;
80870;SDS011;70296;49.226;-122.884;2023-11-22T00:57:30;5.88;;;2.47;;
80870;SDS011;70296;49.226;-122.884;2023-11-22T00:59:56;6.05;;;2.90;;
80870;SDS011;70296;49.226;-122.884;2023-11-22T01:02:22;6.22;;;2.90;;
80870;SDS011;70296;49.226;-122.884;2023-11-22T01:04:49;6.72;;;3.22;;
80870;SDS011;70296;49.226;-122.884;2023-11-22T01:07:15;7.32;;;3.35;;
80870;SDS011;70296;49.226;-122.884;2023-11-22T01:09:41;7.20;;;3.20;;
80870;SDS011;70296;49.226;-122.884;2023-11-22T01:12:07;14.80;;;3.20;;
80870;SDS011;70296;49.226;-122.884;2023-11-22T01:14:37;7.35;;;2.67;;
80870;SDS011;70296;49.226;-122.884;2023-11-22T01:17:05;10.13;;;2.80;;
80870;SDS011;70296;49.226;-122.884;2023-11-22T01:19:34;8.18;;;2.50;;
80870;SDS011;70296;49.226;-122.884;2023-11-22T01:22:00;7.15;;;2.60;;
80870;SDS011;70296;49.226;-122.884;2023-11-22T01:24:27;5.38;;;2.35;;
80870;SDS011;70296;49.226;-122.884;2023-11-22T01:26:54;6.03;;;2.92;;
80870;SDS011;70296;49.226;-122.884;2023-11-22T01:29:22;7.20;;;4.30;;
80870;SDS011;70296;49.226;-122.884;2023-11-22T01:31:48;9.95;;;3.30;;
80870;SDS011;70296;49.226;-122.884;2023-11-22T01:34:15;8.50;;;3.55;;
80870;SDS011;70296;49.226;-122.884;2023-11-22T01:36:42;4.13;;;2.70;;
80870;SDS011;70296;49.226;-122.884;2023-11-22T01:39:11;11.52;;;3.03;;
80870;SDS011;70296;49.226;-122.884;2023-11-22T01:41:39;6.05;;;2.55;;
80870;SDS011;70296;49.226;-122.884;2023-11-22T01:44:07;4.05;;;2.10;;
80870;SDS011;70296;49.226;-122.884;2023-11-22T01:46:34;5.55;;;2.38;;
80870;SDS011;70296;49.226;-122.884;2023-11-22T01:49:00;4.18;;;1.80;;
80870;SDS011;70296;49.226;-122.884;2023-11-22T01:51:26;4.20;;;2.45;;
80870;SDS011;70296;49.226;-122.884;2023-11-22T01:53:54;6.32;;;1.88;;
80870;SDS011;70296;49.226;-122.884;2023-11-22T01:56:23;6.15;;;2.20;;
80870;SDS011;70296;49.226;-122.884;2023-11-22T01:58:50;4.28;;;1.92;;
80870;SDS011;70296;49.226;-122.884;2023-11-22T02:01:18;3.92;;;2.75;;
80870;SDS011;70296;49.226;-122.884;2023-11-22T02:03:45;4.30;;;2.50;;
80870;SDS011;70296;49.226;-122.884;2023-11-22T02:06:14;3.38;;;1.98;;
80870;SDS011;70296;49.226;-122.884;2023-11-22T02:08:44;3.17;;;1.70;;
80870;SDS011;70296;49.226;-122.884;2023-11-22T02:11:10;3.13;;;1.67;;
80870;SDS011;70296;49.226;-122.884;2023-11-22T02:13:37;4.78;;;1.70;;
80870;SDS011;70296;49.226;-122.884;2023-11-22T02:16:03;3.83;;;1.70;;
80870;SDS011;70296;49.226;-122.884;2023-11-22T02:18:30;3.65;;;1.85;;
80870;SDS011;70296;49.226;-122.884;2023-11-22T02:20:57;5.75;;;1.80;;
80870;SDS011;70296;49.226;-122.884;2023-11-22T02:23:23;3.42;;;1.52;;
80870;SDS011;70296;49.226;-122.884;2023-11-22T02:25:50;4.57;;;1.90;;
80870;SDS011;70296;49.226;-122.884;2023-11-22T02:28:17;3.70;;;1.65;;
80870;SDS011;70296;49.226;-122.884;2023-11-22T02:30:43;4.18;;;1.70;;
80870;SDS011;70296;49.226;-122.884;2023-11-22T02:33:09;5.72;;;2.60;;
80870;SDS011;70296;49.226;-122.884;2023-11-22T02:35:35;8.90;;;3.20;;
80870;SDS011;70296;49.226;-122.884;2023-11-22T02:38:02;8.75;;;3.80;;
80870;SDS011;70296;49.226;-122.884;2023-11-22T02:40:28;8.88;;;3.22;;
80870;SDS011;70296;49.226;-122.884;2023-11-22T02:42:56;8.02;;;3.45;;
80870;SDS011;70296;49.226;-122.884;2023-11-22T02:45:29;6.80;;;3.08;;
80870;SDS011;70296;49.226;-122.884;2023-11-22T02:47:55;8.65;;;3.05;;
80870;SDS011;70296;49.226;-122.884;2023-11-22T02:50:23;6.95;;;3.28;;
80870;SDS011;70296;49.226;-122.884;2023-11-22T02:52:50;14.40;;;3.47;;
80870;SDS011;70296;49.226;-122.884;2023-11-22T02:55:17;8.02;;;2.95;;
80870;SDS011;70296;49.226;-122.884;2023-11-22T02:57:43;6.80;;;2.85;;
80870;SDS011;70296;49.226;-122.884;2023-11-22T03:00:10;7.97;;;2.63;;
80870;SDS011;70296;49.226;-122.884;2023-11-22T03:02:40;7.03;;;3.20;;
80870;SDS011;70296;49.226;-122.884;2023-11-22T03:05:10;4.38;;;2.03;;
80870;SDS011;70296;49.226;-122.884;2023-11-22T03:07:37;4.45;;;2.00;;
80870;SDS011;70296;49.226;-122.884;2023-11-22T03:10:04;4.60;;;2.10;;
80870;SDS011;70296;49.226;-122.884;2023-11-22T03:12:33;5.60;;;2.65;;
80870;SDS011;70296;49.226;-122.884;2023-11-22T03:14:59;5.25;;;2.40;;
80870;SDS011;70296;49.226;-122.884;2023-11-22T03:17:27;5.32;;;1.95;;
80870;SDS011;70296;49.226;-122.884;2023-11-22T03:19:54;2.95;;;1.90;;
80870;SDS011;70296;49.226;-122.884;2023-11-22T03:22:26;5.65;;;2.40;;
80870;SDS011;70296;49.226;-122.884;2023-11-22T03:24:56;3.65;;;2.00;;
80870;SDS011;70296;49.226;-122.884;2023-11-22T03:27:32;5.22;;;2.00;;
80870;SDS011;70296;49.226;-122.884;2023-11-22T03:29:59;3.00;;;1.92;;
80870;SDS011;70296;49.226;-122.884;2023-11-22T03:32:25;3.92;;;2.10;;
80870;SDS011;70296;49.226;-122.884;2023-11-22T03:34:54;6.20;;;2.35;;
80870;SDS011;70296;49.226;-122.884;2023-11-22T03:37:21;3.03;;;1.83;;
80870;SDS011;70296;49.226;-122.884;2023-11-22T03:39:47;3.88;;;1.90;;
80870;SDS011;70296;49.226;-122.884;2023-11-22T03:42:17;5.20;;;1.95;;
80870;SDS011;70296;49.226;-122.884;2023-11-22T03:44:43;3.40;;;1.80;;
80870;SDS011;70296;49.226;-122.884;2023-11-22T03:47:10;3.35;;;1.83;;
80870;SDS011;70296;49.226;-122.884;2023-11-22T03:49:39;2.80;;;1.67;;
80870;SDS011;70296;49.226;-122.884;2023-11-22T03:52:05;7.35;;;1.92;;
80870;SDS011;70296;49.226;-122.884;2023-11-22T03:54:32;5.80;;;2.10;;
80870;SDS011;70296;49.226;-122.884;2023-11-22T03:56:58;4.35;;;1.90;;
80870;SDS011;70296;49.226;-122.884;2023-11-22T03:59:26;8.05;;;2.13;;
80870;SDS011;70296;49.226;-122.884;2023-11-22T04:01:52;6.25;;;2.22;;
80870;SDS011;70296;49.226;-122.884;2023-11-22T04:04:19;4.43;;;1.90;;
80870;SDS011;70296;49.226;-122.884;2023-11-22T04:06:45;4.43;;;1.80;;
80870;SDS011;70296;49.226;-122.884;2023-11-22T04:09:13;4.25;;;2.63;;
80870;SDS011;70296;49.226;-122.884;2023-11-22T04:11:42;3.88;;;1.90;;
80870;SDS011;70296;49.226;-122.884;2023-11-22T04:14:08;5.07;;;2.17;;
80870;SDS011;70296;49.226;-122.884;2023-11-22T04:16:36;3.83;;;2.40;;
80870;SDS011;70296;49.226;-122.884;2023-11-22T04:19:02;4.72;;;1.83;;
80870;SDS011;70296;49.226;-122.884;2023-11-22T04:21:28;3.13;;;1.90;;
80870;SDS011;70296;49.226;-122.884;2023-11-22T04:23:55;3.50;;;2.30;;
80870;SDS011;70296;49.226;-122.884;2023-11-22T04:26:21;7.20;;;2.72;;
80870;SDS011;70296;49.226;-122.884;2023-11-22T04:28:50;3.97;;;2.10;;
80870;SDS011;70296;49.226;-122.884;2023-11-22T04:31:16;4.63;;;2.13;;
80870;SDS011;70296;49.226;-122.884;2023-11-22T04:33:42;5.15;;;1.80;;
80870;SDS011;70296;49.226;-122.884;2023-11-22T04:36:08;3.72;;;2.30;;
80870;SDS011;70296;49.226;-122.884;2023-11-22T04:38:36;4.13;;;1.80;;
80870;SDS011;70296;49.226;-122.884;2023-11-22T04:41:03;3.08;;;1.65;;
80870;SDS011;70296;49.226;-122.884;2023-11-22T04:43:29;2.40;;;1.38;;
80870;SDS011;70296;49.226;-122.884;2023-11-22T04:45:55;4.50;;;1.70;;
80870;SDS011;70296;49.226;-122.884;2023-11-22T04:48:22;3.60;;;1.60;;
80870;SDS011;70296;49.226;-122.884;2023-11-22T04:50:49;3.88;;;1.60;;
80870;SDS011;70296;49.226;-122.884;2023-11-22T04:53:15;3.85;;;1.60;;
80870;SDS011;70296;49.226;-122.884;2023-11-22T04:55:42;2.67;;;1.50;;
80870;SDS011;70296;49.226;-122.884;2023-11-22T04:58:09;2.55;;;1.60;;
80870;SDS011;70296;49.226;-122.884;2023-11-22T05:00:35;4.05;;;1.50;;
80870;SDS011;70296;49.226;-122.884;2023-11-22T05:03:01;3.30;;;1.73;;
80870;SDS011;70296;49.226;-122.884;2023-11-22T05:05:27;5.47;;;1.63;;
80870;SDS011;70296;49.226;-122.884;2023-11-22T05:07:54;3.78;;;1.90;;
80870;SDS011;70296;49.226;-122.884;2023-11-22T05:10:21;4.13;;;2.03;;
80870;SDS011;70296;49.226;-122.884;2023-11-22T05:12:47;3.72;;;1.90;;
80870;SDS011;70296;49.226;-122.884;2023-11-22T05:15:13;3.08;;;1.60;;
80870;SDS011;70296;49.226;-122.884;2023-11-22T05:17:39;4.28;;;1.90;;
80870;SDS011;70296;49.226;-122.884;2023-11-22T05:20:06;3.33;;;1.67;;
80870;SDS011;70296;49.226;-122.884;2023-11-22T05:22:35;4.57;;;2.30;;
80870;SDS011;70296;49.226;-122.884;2023-11-22T05:25:02;4.18;;;1.70;;
80870;SDS011;70296;49.226;-122.884;2023-11-22T05:27:29;3.47;;;1.75;;
80870;SDS011;70296;49.226;-122.884;2023-11-22T05:29:57;3.60;;;1.80;;
80870;SDS011;70296;49.226;-122.884;2023-11-22T05:32:26;3.28;;;1.73;;
80870;SDS011;70296;49.226;-122.884;2023-11-22T05:34:56;4.22;;;1.85;;
80870;SDS011;70296;49.226;-122.884;2023-11-22T05:37:22;4.03;;;1.80;;
80870;SDS011;70296;49.226;-122.884;2023-11-22T05:39:49;3.95;;;1.67;;
80870;SDS011;70296;49.226;-122.884;2023-11-22T05:42:17;5.45;;;3.03;;
80870;SDS011;70296;49.226;-122.884;2023-11-22T05:44:43;4.60;;;2.17;;
80870;SDS011;70296;49.226;-122.884;2023-11-22T05:47:09;4.20;;;1.83;;
80870;SDS011;70296;49.226;-122.884;2023-11-22T05:49:38;2.97;;;1.85;;
80870;SDS011;70296;49.226;-122.884;2023-11-22T05:52:04;3.75;;;2.00;;
80870;SDS011;70296;49.226;-122.884;2023-11-22T05:54:30;2.83;;;1.60;;
80870;SDS011;70296;49.226;-122.884;2023-11-22T05:56:59;2.60;;;1.65;;
80870;SDS011;70296;49.226;-122.884;2023-11-22T05:59:25;4.25;;;2.08;;
80870;SDS011;70296;49.226;-122.884;2023-11-22T06:01:51;3.35;;;2.08;;
80870;SDS011;70296;49.226;-122.884;2023-11-22T06:04:17;4.05;;;1.90;;
80870;SDS011;70296;49.226;-122.884;2023-11-22T06:06:43;4.57;;;2.15;;
80870;SDS011;70296;49.226;-122.884;2023-11-22T06:09:10;4.22;;;1.98;;
80870;SDS011;70296;49.226;-122.884;2023-11-22T06:11:39;4.75;;;2.10;;
80870;SDS011;70296;49.226;-122.884;2023-11-22T06:14:06;4.50;;;2.42;;
80870;SDS011;70296;49.226;-122.884;2023-11-22T06:16:32;4.25;;;2.30;;
80870;SDS011;70296;49.226;-122.884;2023-11-22T06:18:58;3.72;;;2.15;;
80870;SDS011;70296;49.226;-122.884;2023-11-22T06:21:24;4.30;;;2.00;;
80870;SDS011;70296;49.226;-122.884;2023-11-22T06:23:53;3.78;;;1.90;;
80870;SDS011;70296;49.226;-122.884;2023-11-22T06:26:23;5.38;;;2.10;;
80870;SDS011;70296;49.226;-122.884;2023-11-22T06:28:51;6.15;;;2.17;;
80870;SDS011;70296;49.226;-122.884;2023-11-22T06:31:18;3.95;;;1.92;;
80870;SDS011;70296;49.226;-122.884;2023-11-22T06:33:44;4.07;;;1.80;;
80870;SDS011;70296;49.226;-122.884;2023-11-22T06:36:12;5.68;;;2.15;;
80870;SDS011;70296;49.226;-122.884;2023-11-22T06:38:40;4.18;;;2.50;;
80870;SDS011;70296;49.226;-122.884;2023-11-22T06:41:06;4.32;;;2.20;;
80870;SDS011;70296;49.226;-122.884;2023-11-22T06:43:32;3.70;;;2.10;;
80870;SDS011;70296;49.226;-122.884;2023-11-22T06:45:59;4.20;;;2.10;;
80870;SDS011;70296;49.226;-122.884;2023-11-22T06:48:27;5.20;;;2.63;;
80870;SDS011;70296;49.226;-122.884;2023-11-22T06:50:54;5.63;;;2.17;;
80870;SDS011;70296;49.226;-122.884;2023-11-22T06:53:20;5.25;;;2.47;;
80870;SDS011;70296;49.226;-122.884;2023-11-22T06:55:46;5.82;;;2.28;;
80870;SDS011;70296;49.226;-122.884;2023-11-22T06:58:12;3.70;;;2.30;;
80870;SDS011;70296;49.226;-122.884;2023-11-22T07:00:39;3.85;;;2.20;;
80870;SDS011;70296;49.226;-122.884;2023-11-22T07:03:05;3.55;;;2.28;;
80870;SDS011;70296;49.226;-122.884;2023-11-22T07:05:32;6.13;;;2.53;;
80870;SDS011;70296;49.226;-122.884;2023-11-22T07:07:58;5.03;;;2.83;;
80870;SDS011;70296;49.226;-122.884;2023-11-22T07:10:24;4.15;;;2.30;;
80870;SDS011;70296;49.226;-122.884;2023-11-22T07:12:53;4.97;;;2.47;;
80870;SDS011;70296;49.226;-122.884;2023-11-22T07:15:21;4.47;;;2.70;;
80870;SDS011;70296;49.226;-122.884;2023-11-22T07:17:47;5.57;;;2.63;;
80870;SDS011;70296;49.226;-122.884;2023-11-22T07:20:14;6.13;;;3.00;;
80870;SDS011;70296;49.226;-122.884;2023-11-22T07:22:43;3.53;;;2.00;;
80870;SDS011;70296;49.226;-122.884;2023-11-22T07:25:10;3.47;;;2.08;;
80870;SDS011;70296;49.226;-122.884;2023-11-22T07:27:46;3.65;;;2.05;;
80870;SDS011;70296;49.226;-122.884;2023-11-22T07:30:13;3.92;;;2.30;;
80870;SDS011;70296;49.226;-122.884;2023-11-22T07:32:41;5.13;;;2.50;;
80870;SDS011;70296;49.226;-122.884;2023-11-22T07:35:08;4.32;;;2.40;;
80870;SDS011;70296;49.226;-122.884;2023-11-22T07:37:34;6.68;;;2.67;;
80870;SDS011;70296;49.226;-122.884;2023-11-22T07:40:10;4.40;;;2.38;;
80870;SDS011;70296;49.226;-122.884;2023-11-22T07:42:39;3.80;;;1.85;;
80870;SDS011;70296;49.226;-122.884;2023-11-22T07:45:07;3.35;;;2.00;;
80870;SDS011;70296;49.226;-122.884;2023-11-22T07:47:37;3.25;;;1.90;;
80870;SDS011;70296;49.226;-122.884;2023-11-22T07:50:07;3.88;;;2.20;;
80870;SDS011;70296;49.226;-122.884;2023-11-22T07:52:34;3.63;;;1.80;;
80870;SDS011;70296;49.226;-122.884;2023-11-22T07:55:03;3.05;;;2.08;;
80870;SDS011;70296;49.226;-122.884;2023-11-22T07:57:36;3.95;;;2.30;;
80870;SDS011;70296;49.226;-122.884;2023-11-22T08:00:07;3.63;;;2.22;;
80870;SDS011;70296;49.226;-122.884;2023-11-22T08:02:34;3.72;;;2.40;;
80870;SDS011;70296;49.226;-122.884;2023-11-22T08:05:00;3.22;;;2.20;;
80870;SDS011;70296;49.226;-122.884;2023-11-22T08:07:28;4.45;;;2.53;;
80870;SDS011;70296;49.226;-122.884;2023-11-22T08:09:55;3.38;;;2.05;;
80870;SDS011;70296;49.226;-122.884;2023-11-22T08:12:21;3.40;;;2.17;;
80870;SDS011;70296;49.226;-122.884;2023-11-22T08:14:48;4.22;;;2.22;;
80870;SDS011;70296;49.226;-122.884;2023-11-22T08:17:14;6.88;;;2.60;;
80870;SDS011;70296;49.226;-122.884;2023-11-22T08:19:41;3.30;;;2.03;;
80870;SDS011;70296;49.226;-122.884;2023-11-22T08:22:08;3.60;;;2.35;;
80870;SDS011;70296;49.226;-122.884;2023-11-22T08:24:35;3.35;;;2.20;;
80870;SDS011;70296;49.226;-122.884;2023-11-22T08:27:01;3.42;;;1.98;;
80870;SDS011;70296;49.226;-122.884;2023-11-22T08:29:28;3.58;;;1.85;;
80870;SDS011;70296;49.226;-122.884;2023-11-22T08:31:54;2.70;;;1.75;;
80870;SDS011;70296;49.226;-122.884;2023-11-22T08:34:22;2.90;;;2.10;;
80870;SDS011;70296;49.226;-122.884;2023-11-22T08:36:48;3.42;;;2.03;;
80870;SDS011;70296;49.226;-122.884;2023-11-22T08:39:14;3.90;;;2.15;;
80870;SDS011;70296;49.226;-122.884;2023-11-22T08:41:41;4.20;;;1.88;;
80870;SDS011;70296;49.226;-122.884;2023-11-22T08:44:10;2.92;;;1.63;;
80870;SDS011;70296;49.226;-122.884;2023-11-22T08:46:36;4.07;;;1.77;;
80870;SDS011;70296;49.226;-122.884;2023-11-22T08:49:02;2.40;;;1.35;;
80870;SDS011;70296;49.226;-122.884;2023-11-22T08:51:28;2.75;;;1.40;;
80870;SDS011;70296;49.226;-122.884;2023-11-22T08:53:55;2.60;;;1.40;;
80870;SDS011;70296;49.226;-122.884;2023-11-22T08:56:21;2.35;;;1.38;;
80870;SDS011;70296;49.226;-122.884;2023-11-22T08:58:47;2.42;;;1.60;;
80870;SDS011;70296;49.226;-122.884;2023-11-22T09:01:13;2.25;;;1.40;;
80870;SDS011;70296;49.226;-122.884;2023-11-22T09:03:40;2.45;;;1.50;;
80870;SDS011;70296;49.226;-122.884;2023-11-22T09:06:06;2.55;;;1.52;;
80870;SDS011;70296;49.226;-122.884;2023-11-22T09:08:35;2.50;;;1.65;;
80870;SDS011;70296;49.226;-122.884;2023-11-22T09:11:02;2.00;;;1.40;;
80870;SDS011;70296;49.226;-122.884;2023-11-22T09:13:32;2.70;;;1.70;;
80870;SDS011;70296;49.226;-122.884;2023-11-22T09:16:00;3.13;;;1.73;;
80870;SDS011;70296;49.226;-122.884;2023-11-22T09:18:30;2.03;;;1.33;;
80870;SDS011;70296;49.226;-122.884;2023-11-22T09:20:57;1.90;;;1.30;;
80870;SDS011;70296;49.226;-122.884;2023-11-22T09:23:23;1.98;;;1.17;;
80870;SDS011;70296;49.226;-122.884;2023-11-22T09:25:51;2.67;;;1.30;;
80870;SDS011;70296;49.226;-122.884;2023-11-22T09:28:17;4.13;;;1.48;;
80870;SDS011;70296;49.226;-122.884;2023-11-22T09:30:45;2.20;;;1.33;;
80870;SDS011;70296;49.226;-122.884;2023-11-22T09:33:12;3.78;;;1.40;;
80870;SDS011;70296;49.226;-122.884;2023-11-22T09:35:42;2.63;;;1.55;;
80870;SDS011;70296;49.226;-122.884;2023-11-22T09:38:12;3.25;;;1.30;;
80870;SDS011;70296;49.226;-122.884;2023-11-22T09:40:43;2.60;;;1.35;;
80870;SDS011;70296;49.226;-122.884;2023-11-22T09:43:13;2.80;;;1.30;;
80870;SDS011;70296;49.226;-122.884;2023-11-22T09:45:45;3.22;;;1.50;;
80870;SDS011;70296;49.226;-122.884;2023-11-22T09:48:15;4.38;;;1.63;;
80870;SDS011;70296;49.226;-122.884;2023-11-22T09:50:50;3.13;;;1.70;;
80870;SDS011;70296;49.226;-122.884;2023-11-22T09:53:25;3.40;;;1.88;;
80870;SDS011;70296;49.226;-122.884;2023-11-22T09:55:59;3.17;;;1.90;;
80870;SDS011;70296;49.226;-122.884;2023-11-22T09:58:30;3.53;;;1.88;;
80870;SDS011;70296;49.226;-122.884;2023-11-22T10:01:02;3.65;;;2.13;;
80870;SDS011;70296;49.226;-122.884;2023-11-22T10:03:33;3.75;;;2.15;;
80870;SDS011;70296;49.226;-122.884;2023-11-22T10:05:59;3.55;;;2.40;;
80870;SDS011;70296;49.226;-122.884;2023-11-22T10:08:26;4.72;;;2.42;;
80870;SDS011;70296;49.226;-122.884;2023-11-22T10:10:58;3.45;;;1.95;;
80870;SDS011;70296;49.226;-122.884;2023-11-22T10:13:25;3.42;;;1.95;;
80870;SDS011;70296;49.226;-122.884;2023-11-22T10:15:52;3.13;;;1.95;;
80870;SDS011;70296;49.226;-122.884;2023-11-22T10:18:19;3.40;;;1.95;;
80870;SDS011;70296;49.226;-122.884;2023-11-22T10:20:49;4.05;;;1.98;;
80870;SDS011;70296;49.226;-122.884;2023-11-22T10:23:17;3.47;;;2.28;;
80870;SDS011;70296;49.226;-122.884;2023-11-22T10:25:47;3.13;;;2.00;;
80870;SDS011;70296;49.226;-122.884;2023-11-22T10:28:19;3.58;;;2.03;;
80870;SDS011;70296;49.226;-122.884;2023-11-22T10:30:46;3.35;;;2.22;;
80870;SDS011;70296;49.226;-122.884;2023-11-22T10:33:16;4.55;;;2.42;;
80870;SDS011;70296;49.226;-122.884;2023-11-22T10:35:49;7.68;;;3.75;;
80870;SDS011;70296;49.226;-122.884;2023-11-22T10:38:18;4.10;;;2.17;;
80870;SDS011;70296;49.226;-122.884;2023-11-22T10:40:46;4.13;;;2.15;;
80870;SDS011;70296;49.226;-122.884;2023-11-22T10:43:16;3.53;;;2.10;;
80870;SDS011;70296;49.226;-122.884;2023-11-22T10:45:50;4.68;;;2.47;;
80870;SDS011;70296;49.226;-122.884;2023-11-22T10:48:18;4.28;;;2.75;;
80870;SDS011;70296;49.226;-122.884;2023-11-22T10:50:47;5.50;;;2.30;;
80870;SDS011;70296;49.226;-122.884;2023-11-22T10:53:16;4.55;;;2.70;;
80870;SDS011;70296;49.226;-122.884;2023-11-22T10:55:45;5.32;;;2.80;;
80870;SDS011;70296;49.226;-122.884;2023-11-22T10:58:13;4.53;;;2.50;;
80870;SDS011;70296;49.226;-122.884;2023-11-22T11:00:41;5.28;;;2.67;;
80870;SDS011;70296;49.226;-122.884;2023-11-22T11:03:11;5.53;;;2.67;;
80870;SDS011;70296;49.226;-122.884;2023-11-22T11:05:47;4.95;;;2.63;;
80870;SDS011;70296;49.226;-122.884;2023-11-22T11:08:16;5.97;;;3.70;;
80870;SDS011;70296;49.226;-122.884;2023-11-22T11:10:45;6.93;;;3.70;;
80870;SDS011;70296;49.226;-122.884;2023-11-22T11:13:12;6.93;;;3.83;;
80870;SDS011;70296;49.226;-122.884;2023-11-22T11:15:39;6.70;;;3.72;;
80870;SDS011;70296;49.226;-122.884;2023-11-22T11:18:07;8.60;;;4.25;;
80870;SDS011;70296;49.226;-122.884;2023-11-22T11:23:15;7.70;;;3.97;;
80870;SDS011;70296;49.226;-122.884;2023-11-22T11:28:42;8.82;;;4.30;;
80870;SDS011;70296;49.226;-122.884;2023-11-22T11:31:16;7.38;;;3.67;;
80870;SDS011;70296;49.226;-122.884;2023-11-22T11:36:25;6.60;;;3.92;;
80870;SDS011;70296;49.226;-122.884;2023-11-22T11:38:56;6.30;;;3.50;;
80870;SDS011;70296;49.226;-122.884;2023-11-22T11:41:27;7.40;;;3.75;;
80870;SDS011;70296;49.226;-122.884;2023-11-22T11:43:55;6.43;;;4.00;;
80870;SDS011;70296;49.226;-122.884;2023-11-22T11:46:23;9.05;;;4.00;;
80870;SDS011;70296;49.226;-122.884;2023-11-22T11:48:51;7.00;;;3.80;;
80870;SDS011;70296;49.226;-122.884;2023-11-22T11:51:18;5.72;;;3.47;;
80870;SDS011;70296;49.226;-122.884;2023-11-22T11:53:49;5.70;;;3.70;;
80870;SDS011;70296;49.226;-122.884;2023-11-22T11:56:16;7.07;;;3.47;;
80870;SDS011;70296;49.226;-122.884;2023-11-22T11:58:45;9.18;;;4.55;;
80870;SDS011;70296;49.226;-122.884;2023-11-22T12:01:14;7.18;;;3.95;;
80870;SDS011;70296;49.226;-122.884;2023-11-22T12:03:42;6.25;;;3.58;;
80870;SDS011;70296;49.226;-122.884;2023-11-22T12:06:09;7.00;;;4.13;;
80870;SDS011;70296;49.226;-122.884;2023-11-22T12:08:35;9.48;;;4.03;;
80870;SDS011;70296;49.226;-122.884;2023-11-22T12:11:05;6.28;;;4.03;;
80870;SDS011;70296;49.226;-122.884;2023-11-22T12:13:33;7.68;;;4.22;;
80870;SDS011;70296;49.226;-122.884;2023-11-22T12:16:04;8.48;;;4.10;;
80870;SDS011;70296;49.226;-122.884;2023-11-22T12:18:43;8.48;;;4.38;;
80870;SDS011;70296;49.226;-122.884;2023-11-22T12:21:10;7.97;;;4.53;;
80870;SDS011;70296;49.226;-122.884;2023-11-22T12:23:40;7.10;;;3.95;;
80870;SDS011;70296;49.226;-122.884;2023-11-22T12:26:10;8.68;;;4.47;;
80870;SDS011;70296;49.226;-122.884;2023-11-22T12:28:38;7.32;;;4.53;;
80870;SDS011;70296;49.226;-122.884;2023-11-22T12:31:12;7.18;;;4.18;;
80870;SDS011;70296;49.226;-122.884;2023-11-22T12:33:40;7.78;;;4.32;;
80870;SDS011;70296;49.226;-122.884;2023-11-22T12:36:07;7.55;;;4.22;;
80870;SDS011;70296;49.226;-122.884;2023-11-22T12:38:42;8.90;;;4.93;;
80870;SDS011;70296;49.226;-122.884;2023-11-22T12:41:08;8.15;;;4.38;;
80870;SDS011;70296;49.226;-122.884;2023-11-22T12:43:35;7.72;;;3.97;;
80870;SDS011;70296;49.226;-122.884;2023-11-22T12:46:04;8.55;;;4.43;;
80870;SDS011;70296;49.226;-122.884;2023-11-22T12:48:41;7.95;;;4.25;;
80870;SDS011;70296;49.226;-122.884;2023-11-22T12:51:17;8.18;;;4.30;;
80870;SDS011;70296;49.226;-122.884;2023-11-22T12:53:51;6.40;;;3.97;;
80870;SDS011;70296;49.226;-122.884;2023-11-22T12:56:17;7.93;;;4.68;;
80870;SDS011;70296;49.226;-122.884;2023-11-22T12:58:44;6.47;;;4.13;;
80870;SDS011;70296;49.226;-122.884;2023-11-22T13:01:10;9.38;;;4.18;;
80870;SDS011;70296;49.226;-122.884;2023-11-22T13:03:36;9.32;;;4.40;;
80870;SDS011;70296;49.226;-122.884;2023-11-22T13:06:02;10.60;;;4.25;;
80870;SDS011;70296;49.226;-122.884;2023-11-22T13:08:29;9.32;;;3.90;;
80870;SDS011;70296;49.226;-122.884;2023-11-22T13:10:56;8.18;;;4.22;;
80870;SDS011;70296;49.226;-122.884;2023-11-22T13:13:26;7.53;;;3.80;;
80870;SDS011;70296;49.226;-122.884;2023-11-22T13:15:53;4.88;;;2.45;;
80870;SDS011;70296;49.226;-122.884;2023-11-22T13:18:22;4.47;;;2.40;;
80870;SDS011;70296;49.226;-122.884;2023-11-22T13:20:48;3.35;;;1.95;;
80870;SDS011;70296;49.226;-122.884;2023-11-22T13:23:15;3.30;;;1.83;;
80870;SDS011;70296;49.226;-122.884;2023-11-22T13:25:42;3.35;;;1.42;;
80870;SDS011;70296;49.226;-122.884;2023-11-22T13:28:11;4.13;;;1.55;;
80870;SDS011;70296;49.226;-122.884;2023-11-22T13:30:37;3.67;;;1.30;;
80870;SDS011;70296;49.226;-122.884;2023-11-22T13:33:05;3.35;;;1.30;;
80870;SDS011;70296;49.226;-122.884;2023-11-22T13:35:31;2.17;;;1.35;;
80870;SDS011;70296;49.226;-122.884;2023-11-22T13:37:59;4.68;;;1.80;;
80870;SDS011;70296;49.226;-122.884;2023-11-22T13:40:27;2.97;;;1.60;;
80870;SDS011;70296;49.226;-122.884;2023-11-22T13:42:56;13.77;;;2.20;;
80870;SDS011;70296;49.226;-122.884;2023-11-22T13:45:23;5.32;;;1.92;;
80870;SDS011;70296;49.226;-122.884;2023-11-22T13:47:52;3.92;;;2.00;;
80870;SDS011;70296;49.226;-122.884;2023-11-22T13:50:23;3.35;;;1.92;;
80870;SDS011;70296;49.226;-122.884;2023-11-22T13:52:55;3.45;;;2.10;;
80870;SDS011;70296;49.226;-122.884;2023-11-22T13:55:24;3.65;;;2.05;;
80870;SDS011;70296;49.226;-122.884;2023-11-22T13:57:51;5.65;;;3.25;;
80870;SDS011;70296;49.226;-122.884;2023-11-22T14:00:18;8.13;;;3.20;;
80870;SDS011;70296;49.226;-122.884;2023-11-22T14:02:51;5.93;;;2.92;;
80870;SDS011;70296;49.226;-122.884;2023-11-22T14:05:25;7.88;;;3.63;;
80870;SDS011;70296;49.226;-122.884;2023-11-22T14:07:55;8.23;;;4.47;;
80870;SDS011;70296;49.226;-122.884;2023-11-22T14:10:21;9.48;;;4.82;;
80870;SDS011;70296;49.226;-122.884;2023-11-22T14:12:48;9.50;;;5.03;;
80870;SDS011;70296;49.226;-122.884;2023-11-22T14:15:15;9.20;;;4.80;;
80870;SDS011;70296;49.226;-122.884;2023-11-22T14:17:42;13.35;;;5.03;;
80870;SDS011;70296;49.226;-122.884;2023-11-22T14:20:10;10.25;;;5.00;;